Time;durP1;ratioP1;P1;durP2;ratioP2;P2;SDS_P1;SDS_P2;PMS_P1;PMS_P2;Temp;Humidity;BMP_temperature;BMP_pressure;BME280_temperature;BME280_humidity;BME280_pressure;Samples;Min_cycle;Max_cycle;Signal;HPM_P1;HPM_P2
2021/04/24 00:01:11;;;;;;;;;;;;;;;5.52;91.59;96262.22;5032440;28;1078;-60
2021/04/24 00:03:39;;;;;;;;;;;;;;;5.45;90.38;96264.19;5032577;28;1504;-59
2021/04/24 00:06:05;;;;;;;;;;;;;;;5.35;91.31;96264.88;5032709;28;985;-59
2021/04/24 00:08:33;;;;;;;;;;;;;;;5.34;92.62;96270.25;5032599;28;1511;-61
2021/04/24 00:11:00;;;;;;;;;;;;;;;5.20;93.42;96265.47;5032051;28;1891;-61
2021/04/24 00:13:26;;;;;;;;;;;;;;;4.99;94.79;96271.38;5032241;28;1029;-60
2021/04/24 00:15:53;;;;;;;;;;;;;;;5.03;94.60;96262.16;5032279;28;1091;-59
2021/04/24 00:18:19;;;;;;;;;;;;;;;5.04;95.01;96262.94;5032209;28;981;-59
2021/04/24 00:20:46;;;;;;;;;;;;;;;4.96;95.22;96269.28;5031645;28;1041;-60
2021/04/24 00:23:13;;;;;;;;;;;;;;;4.98;95.28;96269.81;5032090;28;1177;-60
2021/04/24 00:25:39;;;;;;;;;;;;;;;4.95;95.50;96264.38;5032486;28;1278;-59
2021/04/24 00:28:08;;;;;;;;;;;;;;;5.00;95.10;96262.66;5032106;28;1041;-60
2021/04/24 00:30:34;;;;;;;;;;;;;;;5.07;93.78;96257.34;5032082;28;1250;-60
2021/04/24 00:33:01;;;;;;;;;;;;;;;4.93;94.60;96256.88;5031829;28;1926;-60
2021/04/24 00:35:27;;;;;;;;;;;;;;;4.90;94.30;96261.72;5031871;28;1082;-60
2021/04/24 00:37:54;;;;;;;;;;;;;;;4.85;95.01;96259.88;5031804;28;1062;-59
2021/04/24 00:40:21;;;;;;;;;;;;;;;4.91;93.67;96264.09;5031777;28;1153;-60
2021/04/24 00:42:48;;;;;;;;;;;;;;;4.86;94.35;96271.75;5031931;28;1350;-60
2021/04/24 00:45:15;;;;;;;;;;;;;;;4.87;93.52;96268.16;5031735;28;1045;-60
2021/04/24 00:47:42;;;;;;;;;;;;;;;4.73;93.92;96269.50;5031642;28;1089;-60
2021/04/24 00:50:09;;;;;;;;;;;;;;;4.74;94.32;96263.31;5031663;28;1070;-60
2021/04/24 00:52:37;;;;;;;;;;;;;;;4.71;93.89;96263.81;5031342;28;1981;-60
2021/04/24 00:55:04;;;;;;;;;;;;;;;4.71;93.88;96274.09;5031678;28;1049;-61
2021/04/24 00:57:31;;;;;;;;;;;;;;;4.67;93.67;96270.44;5031546;28;1108;-62
2021/04/24 00:59:58;;;;;;;;;;;;;;;4.63;93.82;96266.78;5031778;28;1021;-60
2021/04/24 01:02:24;;;;;;;;;;;;;;;4.60;93.56;96262.09;5031596;28;1066;-61
2021/04/24 01:04:50;;;;;;;;;;;;;;;4.59;94.34;96265.69;5031645;28;1128;-60
2021/04/24 01:07:17;;;;;;;;;;;;;;;4.73;93.73;96266.94;5031333;28;1130;-60
2021/04/24 01:09:43;;;;;;;;;;;;;;;4.65;93.52;96265.53;5031327;28;1309;-60
2021/04/24 01:12:11;;;;;;;;;;;;;;;4.83;92.55;96281.75;5031069;28;1969;-60
2021/04/24 01:14:37;;;;;;;;;;;;;;;4.73;91.88;96269.50;5031271;28;1086;-60
2021/04/24 01:17:04;;;;;;;;;;;;;;;4.56;92.12;96276.47;5031560;28;1133;-60
2021/04/24 01:19:30;;;;;;;;;;;;;;;4.49;92.87;96279.19;5031366;28;1058;-60
2021/04/24 01:22:08;;;;;;;;;;;;;;;4.45;93.45;96285.03;5031282;28;1062;-60
2021/04/24 01:24:34;;;;;;;;;;;;;;;4.29;93.01;96282.22;5031334;28;827;-59
2021/04/24 01:27:01;;;;;;;;;;;;;;;4.12;93.89;96276.31;5031402;28;1052;-60
2021/04/24 01:29:30;;;;;;;;;;;;;;;4.12;94.90;96276.31;5031825;28;1709;-61
2021/04/24 01:31:59;;;;;;;;;;;;;;;4.04;94.07;96279.25;5031156;28;1906;-61
2021/04/24 01:34:26;;;;;;;;;;;;;;;3.97;94.34;96291.50;5035354;28;1745;-59
2021/04/24 01:36:54;;;;;;;;;;;;;;;4.01;94.81;96286.66;5035323;28;796;-60
2021/04/24 01:39:21;;;;;;;;;;;;;;;3.94;94.47;96289.38;5035101;28;1005;-60
2021/04/24 01:41:48;;;;;;;;;;;;;;;3.82;95.08;96279.16;5035326;28;1100;-61
2021/04/24 01:44:14;;;;;;;;;;;;;;;3.89;95.22;96279.00;5035245;28;990;-62
2021/04/24 01:46:40;;;;;;;;;;;;;;;3.93;94.58;96269.84;5035140;28;1059;-60
2021/04/24 01:49:07;;;;;;;;;;;;;;;3.93;94.75;96271.63;5034866;28;1070;-60
2021/04/24 01:51:33;;;;;;;;;;;;;;;3.78;94.71;96277.28;5034779;28;1898;-59
2021/04/24 01:54:01;;;;;;;;;;;;;;;3.74;95.33;96289.00;5034833;28;1141;-60
2021/04/24 01:56:40;;;;;;;;;;;;;;;3.81;95.48;96284.53;5035033;28;879;-59
2021/04/24 01:59:06;;;;;;;;;;;;;;;3.73;94.75;96292.63;5034993;28;1017;-61
2021/04/24 02:01:32;;;;;;;;;;;;;;;3.72;95.02;96283.34;5034748;28;2016;-61
2021/04/24 02:03:59;;;;;;;;;;;;;;;3.66;96.08;96294.53;5034731;28;1028;-60
2021/04/24 02:06:26;;;;;;;;;;;;;;;3.65;95.27;96290.41;5034560;28;1077;-61
2021/04/24 02:08:52;;;;;;;;;;;;;;;3.53;95.09;96287.88;5034460;28;1073;-60
2021/04/24 02:11:18;;;;;;;;;;;;;;;3.45;96.22;96290.81;5034368;28;1902;-62
2021/04/24 02:13:46;;;;;;;;;;;;;;;3.52;96.25;96290.69;5034467;28;1082;-60
2021/04/24 02:16:13;;;;;;;;;;;;;;;3.50;94.94;96292.69;5034342;28;1034;-60
2021/04/24 02:18:43;;;;;;;;;;;;;;;3.46;96.13;96295.72;5034272;28;1086;-62
2021/04/24 02:21:09;;;;;;;;;;;;;;;3.50;95.88;96293.47;5034387;28;1066;-60
2021/04/24 02:23:37;;;;;;;;;;;;;;;3.52;95.88;96294.03;5034334;28;1049;-60
2021/04/24 02:26:04;;;;;;;;;;;;;;;3.39;96.31;96289.91;5034279;28;1078;-61
2021/04/24 02:28:30;;;;;;;;;;;;;;;3.33;96.93;96296.00;5034188;28;1124;-62
2021/04/24 02:30:58;;;;;;;;;;;;;;;3.36;97.80;96292.16;5034195;28;1906;-61
2021/04/24 02:33:25;;;;;;;;;;;;;;;3.29;97.38;96297.44;5034301;28;1488;-60
2021/04/24 02:35:53;;;;;;;;;;;;;;;3.38;96.12;96290.94;5034031;28;1057;-61
2021/04/24 02:38:21;;;;;;;;;;;;;;;3.27;96.95;96298.69;5034271;28;994;-61
2021/04/24 02:40:48;;;;;;;;;;;;;;;3.08;96.72;96292.91;5034364;28;1619;-62
2021/04/24 02:43:14;;;;;;;;;;;;;;;2.99;95.97;96291.69;5033370;28;1278;-61
2021/04/24 02:45:41;;;;;;;;;;;;;;;2.97;95.82;96288.56;5033959;28;1104;-63
2021/04/24 02:48:08;;;;;;;;;;;;;;;2.99;95.57;96291.69;5033779;28;1090;-61
2021/04/24 02:50:35;;;;;;;;;;;;;;;2.99;96.02;96297.59;5034059;28;1082;-61
2021/04/24 02:53:02;;;;;;;;;;;;;;;3.06;95.37;96294.91;5033907;28;1906;-62
2021/04/24 02:55:29;;;;;;;;;;;;;;;3.08;96.14;96290.34;5033756;28;1073;-60
2021/04/24 02:57:55;;;;;;;;;;;;;;;3.11;95.28;96289.09;5033719;28;1041;-62
2021/04/24 03:00:22;;;;;;;;;;;;;;;3.15;95.44;96296.13;5033776;28;1124;-61
2021/04/24 03:02:59;;;;;;;;;;;;;;;3.12;96.12;96296.59;5033592;28;1081;-62
2021/04/24 03:05:26;;;;;;;;;;;;;;;3.09;95.81;96294.44;5033711;28;842;-61
2021/04/24 03:07:52;;;;;;;;;;;;;;;3.17;95.60;96291.56;5033441;28;994;-60
2021/04/24 03:10:19;;;;;;;;;;;;;;;3.14;95.06;96298.94;5033160;28;1723;-61
2021/04/24 03:12:45;;;;;;;;;;;;;;;3.16;95.95;96297.69;5033344;28;1894;-60
2021/04/24 03:15:12;;;;;;;;;;;;;;;3.21;95.87;96290.09;5033238;28;1086;-62
2021/04/24 03:17:38;;;;;;;;;;;;;;;3.20;95.54;96293.66;5033274;28;1118;-62
2021/04/24 03:20:05;;;;;;;;;;;;;;;3.24;94.88;96304.28;5033412;28;1053;-60
2021/04/24 03:22:33;;;;;;;;;;;;;;;3.22;95.13;96301.13;5033355;28;1053;-61
2021/04/24 03:24:59;;;;;;;;;;;;;;;2.94;94.54;96296.69;5033185;28;1001;-61
2021/04/24 03:27:25;;;;;;;;;;;;;;;2.88;94.95;96298.41;5033155;28;989;-61
2021/04/24 03:29:52;;;;;;;;;;;;;;;2.79;95.46;96302.28;5033086;28;1125;-61
2021/04/24 03:32:18;;;;;;;;;;;;;;;2.74;94.35;96309.13;5033081;28;1906;-61
2021/04/24 03:34:44;;;;;;;;;;;;;;;2.54;95.04;96310.22;5032970;28;1173;-61
2021/04/24 03:37:11;;;;;;;;;;;;;;;2.59;94.08;96315.47;5033105;28;1117;-61
2021/04/24 03:39:38;;;;;;;;;;;;;;;2.48;93.87;96320.59;5032999;28;1006;-61
2021/04/24 03:42:05;;;;;;;;;;;;;;;2.19;94.98;96319.66;5032810;28;1125;-62
2021/04/24 03:44:32;;;;;;;;;;;;;;;2.32;96.18;96310.97;5032614;28;1028;-60
2021/04/24 03:46:58;;;;;;;;;;;;;;;2.41;95.77;96309.66;5032996;28;968;-62
2021/04/24 03:49:25;;;;;;;;;;;;;;;2.44;95.18;96306.66;5032696;28;1133;-61
2021/04/24 03:51:52;;;;;;;;;;;;;;;2.47;95.27;96304.41;5032810;28;1981;-61
2021/04/24 03:54:18;;;;;;;;;;;;;;;2.62;95.28;96310.91;5032361;28;1132;-61
2021/04/24 03:56:48;;;;;;;;;;;;;;;2.62;96.46;96306.53;5032757;28;1596;-62
2021/04/24 03:59:16;;;;;;;;;;;;;;;2.74;95.57;96311.69;5033087;28;1629;-60
2021/04/24 04:01:43;;;;;;;;;;;;;;;2.88;96.53;96320.72;5032446;28;2041;-60
2021/04/24 04:04:10;;;;;;;;;;;;;;;3.11;95.68;96314.78;5032475;28;1017;-61
2021/04/24 04:06:36;;;;;;;;;;;;;;;3.22;94.11;96313.97;5032497;28;1028;-60
2021/04/24 04:09:03;;;;;;;;;;;;;;;3.34;95.17;96323.22;5032280;28;1250;-61
2021/04/24 04:11:29;;;;;;;;;;;;;;;3.41;94.88;96330.81;5032065;28;1898;-61
2021/04/24 04:13:56;;;;;;;;;;;;;;;3.37;94.75;96334.84;5032504;28;1744;-63
2021/04/24 04:16:23;;;;;;;;;;;;;;;3.20;95.34;96334.75;5032192;28;1073;-60
2021/04/24 04:18:49;;;;;;;;;;;;;;;3.23;95.67;96334.31;5032261;28;1017;-62
2021/04/24 04:21:16;;;;;;;;;;;;;;;3.25;96.79;96339.97;5032129;28;1010;-61
2021/04/24 04:23:42;;;;;;;;;;;;;;;3.35;97.15;96341.97;5031899;28;1082;-63
2021/04/24 04:26:09;;;;;;;;;;;;;;;3.35;97.46;96345.31;5031952;28;1111;-61
2021/04/24 04:28:35;;;;;;;;;;;;;;;3.41;96.75;96339.28;5032160;28;1045;-62
2021/04/24 04:31:02;;;;;;;;;;;;;;;3.51;97.57;96327.66;5031848;28;1969;-61
2021/04/24 04:33:29;;;;;;;;;;;;;;;3.50;98.03;96328.66;5031979;28;1062;-61
2021/04/24 04:35:55;;;;;;;;;;;;;;;3.71;96.93;96328.03;5032122;28;1856;-59
2021/04/24 04:38:22;;;;;;;;;;;;;;;3.86;96.55;96329.09;5031736;28;1125;-61
2021/04/24 04:40:48;;;;;;;;;;;;;;;4.00;96.25;96334.72;5031679;28;1018;-60
2021/04/24 04:43:15;;;;;;;;;;;;;;;4.10;95.49;96328.97;5031581;28;1156;-59
2021/04/24 04:45:42;;;;;;;;;;;;;;;4.19;95.33;96330.94;5031847;28;1535;-60
2021/04/24 04:48:09;;;;;;;;;;;;;;;4.27;94.98;96328.00;5031767;28;886;-59
2021/04/24 04:50:38;;;;;;;;;;;;;;;4.20;93.78;96332.50;5031480;28;1129;-59
2021/04/24 04:53:04;;;;;;;;;;;;;;;4.32;93.93;96332.44;5031179;28;1910;-61
2021/04/24 04:55:30;;;;;;;;;;;;;;;4.48;93.45;96333.47;5031541;28;1074;-61
2021/04/24 04:57:57;;;;;;;;;;;;;;;4.54;93.37;96335.88;5031138;28;987;-61
2021/04/24 05:00:24;;;;;;;;;;;;;;;4.50;93.93;96339.16;5031525;28;1378;-61
2021/04/24 05:02:51;;;;;;;;;;;;;;;4.65;93.87;96326.53;5031115;28;1186;-61
2021/04/24 05:05:18;;;;;;;;;;;;;;;4.74;93.59;96322.53;5031127;28;1078;-62
2021/04/24 05:07:45;;;;;;;;;;;;;;;4.84;93.31;96327.84;5030953;28;972;-59
2021/04/24 05:10:12;;;;;;;;;;;;;;;5.00;92.14;96327.03;5031028;28;1426;-62
2021/04/24 05:12:38;;;;;;;;;;;;;;;5.10;91.41;96319.44;5030862;28;1987;-62
2021/04/24 05:15:06;;;;;;;;;;;;;;;5.09;91.78;96315.31;5031182;28;962;-58
2021/04/24 05:17:32;;;;;;;;;;;;;;;5.25;91.08;96310.34;5031053;28;1033;-61
2021/04/24 05:19:59;;;;;;;;;;;;;;;5.20;92.08;96314.44;5031009;28;1285;-62
2021/04/24 05:22:26;;;;;;;;;;;;;;;5.40;92.72;96302.81;5030953;28;1082;-63
2021/04/24 05:24:52;;;;;;;;;;;;;;;5.47;92.87;96313.72;5030834;28;1156;-61
2021/04/24 05:27:19;;;;;;;;;;;;;;;5.54;93.20;96309.16;5031262;28;1239;-62
2021/04/24 05:29:45;;;;;;;;;;;;;;;5.41;93.60;96315.47;5031162;28;1022;-62
2021/04/24 05:32:11;;;;;;;;;;;;;;;5.72;92.80;96321.75;5031051;28;1903;-61
2021/04/24 05:34:38;;;;;;;;;;;;;;;5.91;92.36;96327.38;5030861;28;988;-61
2021/04/24 05:37:05;;;;;;;;;;;;;;;6.10;92.33;96330.41;5030982;28;1093;-60
2021/04/24 05:39:32;;;;;;;;;;;;;;;6.24;91.88;96334.13;5030904;28;1081;-61
2021/04/24 05:42:00;;;;;;;;;;;;;;;6.26;91.46;96332.09;5030904;28;1132;-63
2021/04/24 05:44:26;;;;;;;;;;;;;;;6.22;91.13;96336.19;5030885;28;1025;-61
2021/04/24 05:46:52;;;;;;;;;;;;;;;6.35;91.36;96341.72;5030866;28;1230;-61
2021/04/24 05:49:19;;;;;;;;;;;;;;;6.25;90.50;96340.84;5030942;28;1526;-61
2021/04/24 05:51:45;;;;;;;;;;;;;;;6.35;88.64;96338.38;5030692;28;1989;-62
2021/04/24 05:54:12;;;;;;;;;;;;;;;6.36;87.52;96332.97;5030882;28;1137;-61
2021/04/24 05:56:39;;;;;;;;;;;;;;;6.65;86.69;96324.91;5030955;28;1528;-61
2021/04/24 05:59:05;;;;;;;;;;;;;;;6.79;84.71;96339.75;5030761;28;1029;-60
2021/04/24 06:01:32;;;;;;;;;;;;;;;6.93;85.94;96338.28;5030892;28;1321;-62
2021/04/24 06:03:58;;;;;;;;;;;;;;;7.18;86.29;96336.88;5030572;28;1066;-59
2021/04/24 06:06:25;;;;;;;;;;;;;;;7.53;84.53;96336.25;5030707;28;1140;-61
2021/04/24 06:08:51;;;;;;;;;;;;;;;7.70;82.55;96334.28;5030420;28;1542;-59
2021/04/24 06:11:17;;;;;;;;;;;;;;;7.98;82.28;96333.81;5030292;28;2017;-61
2021/04/24 06:13:45;;;;;;;;;;;;;;;8.28;78.09;96342.69;5030591;28;1129;-61
2021/04/24 06:16:13;;;;;;;;;;;;;;;8.37;77.97;96347.13;5030739;28;962;-64
2021/04/24 06:18:41;;;;;;;;;;;;;;;8.66;79.63;96338.88;5031720;28;993;-61
2021/04/24 06:21:07;;;;;;;;;;;;;;;8.80;76.58;96347.66;5034159;28;1070;-61
2021/04/24 06:23:33;;;;;;;;;;;;;;;8.95;75.71;96342.47;5034171;28;1129;-61
2021/04/24 06:26:00;;;;;;;;;;;;;;;9.18;77.56;96339.31;5034070;28;1145;-59
2021/04/24 06:28:26;;;;;;;;;;;;;;;9.25;73.92;96350.19;5034016;28;1125;-61
2021/04/24 06:30:54;;;;;;;;;;;;;;;9.37;76.86;96348.06;5034087;28;1045;-61
2021/04/24 06:33:20;;;;;;;;;;;;;;;9.59;74.96;96342.56;5034171;28;1910;-62
2021/04/24 06:35:46;;;;;;;;;;;;;;;9.51;75.30;96338.69;5034262;28;1049;-61
2021/04/24 06:38:13;;;;;;;;;;;;;;;9.80;75.34;96335.47;5034044;28;1029;-60
2021/04/24 06:40:39;;;;;;;;;;;;;;;9.86;74.44;96347.38;5033953;28;1133;-62
2021/04/24 06:43:06;;;;;;;;;;;;;;;9.88;72.46;96345.28;5034224;28;1610;-61
2021/04/24 06:45:33;;;;;;;;;;;;;;;10.10;71.14;96342.31;5033747;28;1640;-62
2021/04/24 06:48:01;;;;;;;;;;;;;;;10.49;69.32;96345.72;5033963;28;986;-61
2021/04/24 06:50:28;;;;;;;;;;;;;;;10.64;69.69;96337.03;5033866;28;977;-62
2021/04/24 06:52:55;;;;;;;;;;;;;;;10.78;69.39;96340.56;5034005;28;1985;-61
2021/04/24 06:55:22;;;;;;;;;;;;;;;10.92;68.82;96335.50;5033922;28;1614;-62
2021/04/24 06:57:49;;;;;;;;;;;;;;;11.17;70.98;96330.03;5033632;28;1132;-61
2021/04/24 07:00:16;;;;;;;;;;;;;;;11.41;64.37;96330.03;5033530;28;1070;-63
2021/04/24 07:02:42;;;;;;;;;;;;;;;11.71;65.91;96334.91;5033917;28;1029;-60
2021/04/24 07:05:12;;;;;;;;;;;;;;;11.73;60.32;96330.22;5033592;28;1957;-62
2021/04/24 07:07:38;;;;;;;;;;;;;;;11.65;63.77;96321.19;5033743;28;1179;-63
2021/04/24 07:10:06;;;;;;;;;;;;;;;11.82;64.37;96325.94;5033412;28;1440;-63
2021/04/24 07:12:33;;;;;;;;;;;;;;;11.88;60.80;96337.84;5033500;28;1898;-62
2021/04/24 07:15:00;;;;;;;;;;;;;;;12.12;61.79;96331.81;5033355;28;1130;-63
2021/04/24 07:17:26;;;;;;;;;;;;;;;12.10;61.17;96328.72;5033739;28;1323;-63
2021/04/24 07:19:53;;;;;;;;;;;;;;;12.45;58.13;96328.22;5033417;28;1070;-61
2021/04/24 07:22:20;;;;;;;;;;;;;;;12.47;53.97;96326.06;5033229;28;1069;-64
2021/04/24 07:24:47;;;;;;;;;;;;;;;12.54;55.15;96326.50;5033188;28;1086;-62
2021/04/24 07:27:14;;;;;;;;;;;;;;;12.54;56.76;96326.50;5033137;28;1456;-62
2021/04/24 07:29:41;;;;;;;;;;;;;;;12.51;53.04;96333.03;5033021;28;1092;-63
2021/04/24 07:32:08;;;;;;;;;;;;;;;12.66;50.78;96321.59;5033174;28;1902;-62
2021/04/24 07:34:34;;;;;;;;;;;;;;;12.60;51.18;96324.59;5033368;28;1283;-63
2021/04/24 07:37:01;;;;;;;;;;;;;;;12.65;51.32;96324.50;5032960;28;1144;-62
2021/04/24 07:39:28;;;;;;;;;;;;;;;12.73;52.33;96322.00;5033192;28;1509;-60
2021/04/24 07:41:55;;;;;;;;;;;;;;;12.95;50.59;96318.78;5032664;28;1073;-61
2021/04/24 07:44:23;;;;;;;;;;;;;;;12.72;45.88;96317.84;5032761;28;1134;-62
2021/04/24 07:46:50;;;;;;;;;;;;;;;12.83;48.06;96314.03;5033071;28;1038;-63
2021/04/24 07:49:17;;;;;;;;;;;;;;;13.00;45.45;96304.88;5032848;28;1329;-62
2021/04/24 07:51:43;;;;;;;;;;;;;;;12.97;44.64;96300.22;5032633;28;1902;-62
2021/04/24 07:54:12;;;;;;;;;;;;;;;13.23;47.38;96299.50;5032785;28;1022;-62
2021/04/24 07:56:39;;;;;;;;;;;;;;;13.49;47.93;96297.19;5032445;28;1092;-64
2021/04/24 07:59:06;;;;;;;;;;;;;;;13.57;45.51;96301.72;5032563;28;1276;-63
2021/04/24 08:01:32;;;;;;;;;;;;;;;13.76;44.66;96299.75;5032632;28;1013;-63
2021/04/24 08:03:58;;;;;;;;;;;;;;;13.98;45.91;96290.44;5032631;28;1045;-64
2021/04/24 08:06:25;;;;;;;;;;;;;;;14.18;47.44;96292.59;5032346;28;1068;-62
2021/04/24 08:08:51;;;;;;;;;;;;;;;14.45;45.95;96289.09;5032298;28;1149;-62
2021/04/24 08:11:18;;;;;;;;;;;;;;;14.30;47.36;96286.81;5031958;28;1670;-63
2021/04/24 08:13:45;;;;;;;;;;;;;;;13.94;45.50;96294.69;5032095;28;1903;-62
2021/04/24 08:16:12;;;;;;;;;;;;;;;14.12;45.76;96283.31;5032523;28;986;-62
2021/04/24 08:18:39;;;;;;;;;;;;;;;14.38;43.11;96284.31;5032231;28;1567;-63
2021/04/24 08:21:05;;;;;;;;;;;;;;;14.35;43.85;96290.09;5032024;28;1148;-63
2021/04/24 08:23:32;;;;;;;;;;;;;;;14.09;46.01;96283.91;5032212;28;912;-62
2021/04/24 08:25:58;;;;;;;;;;;;;;;14.17;43.25;96283.97;5032211;28;978;-62
2021/04/24 08:28:24;;;;;;;;;;;;;;;14.03;45.85;96272.00;5032265;28;1009;-61
2021/04/24 08:30:52;;;;;;;;;;;;;;;14.35;46.65;96271.78;5032231;28;1216;-62
2021/04/24 08:33:18;;;;;;;;;;;;;;;13.89;45.45;96261.63;5031859;28;1906;-63
2021/04/24 08:35:44;;;;;;;;;;;;;;;14.25;46.04;96256.34;5032082;28;1514;-60
2021/04/24 08:38:11;;;;;;;;;;;;;;;14.41;42.98;96254.94;5031716;28;1049;-63
2021/04/24 08:40:37;;;;;;;;;;;;;;;14.31;42.14;96251.75;5031592;28;1049;-61
2021/04/24 08:43:03;;;;;;;;;;;;;;;14.51;44.15;96251.31;5031536;28;1122;-62
2021/04/24 08:45:31;;;;;;;;;;;;;;;14.44;42.76;96245.75;5031774;28;1137;-62
2021/04/24 08:47:58;;;;;;;;;;;;;;;14.62;43.67;96236.91;5031666;28;1013;-64
2021/04/24 08:50:25;;;;;;;;;;;;;;;14.62;45.33;96231.66;5031690;28;949;-61
2021/04/24 08:52:53;;;;;;;;;;;;;;;14.81;41.93;96220.97;5032061;28;1946;-62
2021/04/24 08:55:20;;;;;;;;;;;;;;;14.61;41.28;96225.66;5031870;28;1500;-62
2021/04/24 08:57:47;;;;;;;;;;;;;;;14.94;43.72;96218.25;5031713;28;1010;-64
2021/04/24 09:00:14;;;;;;;;;;;;;;;14.81;42.42;96213.13;5031553;28;1066;-62
2021/04/24 09:02:42;;;;;;;;;;;;;;;14.88;41.63;96205.63;5031572;28;1320;-62
2021/04/24 09:05:11;;;;;;;;;;;;;;;15.16;45.82;96193.06;5031703;28;1203;-62
2021/04/24 09:07:37;;;;;;;;;;;;;;;15.08;44.20;96202.47;5031921;28;1521;-62
2021/04/24 09:10:04;;;;;;;;;;;;;;;15.23;42.57;96202.03;5031207;28;1349;-62
2021/04/24 09:12:34;;;;;;;;;;;;;;;15.10;42.60;96184.59;5031134;28;1899;-62
2021/04/24 09:15:06;;;;;;;;;;;;;;;15.26;43.97;96187.56;5031294;28;1271;-62
2021/04/24 09:17:47;;;;;;;;;;;;;;;15.31;41.17;96184.78;5031308;28;1057;-62
2021/04/24 09:20:15;;;;;;;;;;;;;;;14.98;39.86;96173.94;5031715;28;1153;-62
2021/04/24 09:22:42;;;;;;;;;;;;;;;15.17;44.94;96179.69;5031487;28;1064;-62
2021/04/24 09:25:08;;;;;;;;;;;;;;;15.39;43.48;96171.69;5031642;28;1495;-62
2021/04/24 09:27:41;;;;;;;;;;;;;;;15.72;44.81;96164.19;5031331;28;1089;-60
2021/04/24 09:30:18;;;;;;;;;;;;;;;15.76;43.80;96170.38;5031211;28;1145;-63
2021/04/24 09:32:44;;;;;;;;;;;;;;;15.52;40.66;96166.66;5031249;28;1907;-62
2021/04/24 09:35:14;;;;;;;;;;;;;;;15.54;42.95;96161.91;5031180;28;1125;-63
2021/04/24 09:37:42;;;;;;;;;;;;;;;15.80;40.64;96154.78;5031226;28;982;-62
2021/04/24 09:40:10;;;;;;;;;;;;;;;15.93;41.40;96153.88;5030979;28;1543;-61
2021/04/24 09:42:38;;;;;;;;;;;;;;;15.66;42.65;96148.94;5031062;28;1140;-62
2021/04/24 09:45:08;;;;;;;;;;;;;;;15.33;41.59;96151.22;5031182;28;1061;-61
2021/04/24 09:47:44;;;;;;;;;;;;;;;15.05;43.76;96146.22;5031307;28;1072;-62
2021/04/24 09:50:13;;;;;;;;;;;;;;;15.02;44.00;96143.47;5031080;28;1002;-62
2021/04/24 09:52:39;;;;;;;;;;;;;;;15.49;44.36;96139.97;5030948;28;1898;-62
2021/04/24 09:55:07;;;;;;;;;;;;;;;15.45;42.49;96133.03;5034746;28;875;-62
2021/04/24 09:57:34;;;;;;;;;;;;;;;15.73;42.82;96128.28;5034803;28;1078;-63
2021/04/24 10:00:01;;;;;;;;;;;;;;;15.94;41.81;96129.16;5034810;28;1305;-62
2021/04/24 10:02:29;;;;;;;;;;;;;;;16.23;41.26;96123.25;5035016;28;1504;-62
2021/04/24 10:05:05;;;;;;;;;;;;;;;16.35;43.29;96121.50;5034602;28;1234;-62
2021/04/24 10:07:35;;;;;;;;;;;;;;;16.41;42.55;96111.63;5034484;28;1275;-63
2021/04/24 10:10:02;;;;;;;;;;;;;;;15.92;40.30;96116.38;5034497;28;1471;-62
2021/04/24 10:12:29;;;;;;;;;;;;;;;15.89;42.45;96111.75;5034392;28;1902;-62
2021/04/24 10:14:56;;;;;;;;;;;;;;;16.06;44.31;96103.09;5034517;28;1124;-61
2021/04/24 10:17:22;;;;;;;;;;;;;;;16.03;46.57;96098.47;5034445;28;1005;-62
2021/04/24 10:19:50;;;;;;;;;;;;;;;16.17;44.82;96093.81;5034299;28;1125;-62
2021/04/24 10:22:17;;;;;;;;;;;;;;;15.49;42.76;96103.28;5034237;28;1110;-62
2021/04/24 10:24:44;;;;;;;;;;;;;;;16.02;42.23;96098.78;5034336;28;1125;-63
2021/04/24 10:27:11;;;;;;;;;;;;;;;15.45;40.01;96091.88;5034355;28;1061;-62
2021/04/24 10:29:39;;;;;;;;;;;;;;;15.96;43.78;96090.31;5034605;28;1076;-62
2021/04/24 10:32:06;;;;;;;;;;;;;;;16.16;42.36;96088.88;5034032;28;1906;-63
2021/04/24 10:34:32;;;;;;;;;;;;;;;16.15;45.66;96088.09;5034165;28;1073;-63
2021/04/24 10:36:59;;;;;;;;;;;;;;;15.70;43.19;96092.19;5034284;28;1083;-62
2021/04/24 10:39:26;;;;;;;;;;;;;;;16.05;44.39;96083.19;5034468;28;1129;-62
2021/04/24 10:42:03;;;;;;;;;;;;;;;16.07;43.03;96086.28;5033900;28;1130;-62
2021/04/24 10:44:48;;;;;;;;;;;;;;;16.05;43.46;96087.66;5034025;28;1089;-61
2021/04/24 10:47:15;;;;;;;;;;;;;;;16.34;42.39;96079.84;5033710;28;1129;-62
2021/04/24 10:50:02;;;;;;;;;;;;;;;16.26;45.13;96078.03;5034021;28;1084;-62
2021/04/24 10:52:29;;;;;;;;;;;;;;;15.77;46.04;96080.19;5030181;28;1989;-62
2021/04/24 10:55:13;;;;;;;;;;;;;;;15.76;41.30;96085.72;5033684;28;1136;-62
2021/04/24 10:57:41;;;;;;;;;;;;;;;15.71;42.66;96078.81;5033596;28;1082;-62
2021/04/24 11:00:08;;;;;;;;;;;;;;;16.22;43.62;96087.63;5033650;28;1077;-62
2021/04/24 11:02:39;;;;;;;;;;;;;;;15.91;43.09;96093.88;5033748;28;1037;-62
2021/04/24 11:05:22;;;;;;;;;;;;;;;15.66;42.49;96105.16;5033157;28;1086;-63
2021/04/24 11:07:48;;;;;;;;;;;;;;;15.90;43.03;96099.41;5032364;28;2106;-62
2021/04/24 11:10:24;;;;;;;;;;;;;;;16.05;44.72;96106.78;5033316;28;1350;-62
2021/04/24 11:12:51;;;;;;;;;;;;;;;15.97;41.62;96107.59;5033652;28;1906;-62
2021/04/24 11:15:18;;;;;;;;;;;;;;;16.17;43.45;96116.63;5033369;28;1078;-61
2021/04/24 11:17:46;;;;;;;;;;;;;;;16.08;41.08;96114.03;5033320;28;1100;-62
2021/04/24 11:20:14;;;;;;;;;;;;;;;15.87;44.70;96121.78;5033219;28;1114;-62
2021/04/24 11:22:41;;;;;;;;;;;;;;;15.87;42.36;96131.50;5033422;28;2222;-61
2021/04/24 11:25:26;;;;;;;;;;;;;;;15.82;41.05;96132.44;5033763;28;1340;-61
2021/04/24 11:28:03;;;;;;;;;;;;;;;16.13;40.57;96131.47;5033011;28;1064;-62
2021/04/24 11:30:51;;;;;;;;;;;;;;;15.91;39.72;96124.56;5033467;28;1645;-61
2021/04/24 11:33:31;;;;;;;;;;;;;;;16.16;41.29;96125.59;5033095;28;1997;-60
2021/04/24 11:36:18;;;;;;;;;;;;;;;16.23;41.10;96121.41;5033421;28;2062;-61
2021/04/24 11:39:04;;;;;;;;;;;;;;;16.34;42.62;96127.06;5032945;28;1070;-60
2021/04/24 11:41:31;;;;;;;;;;;;;;;16.62;42.33;96130.84;5033217;28;1503;-62
2021/04/24 11:43:58;;;;;;;;;;;;;;;16.66;36.84;96123.13;5032998;28;986;-61
2021/04/24 11:46:34;;;;;;;;;;;;;;;16.70;38.32;96116.16;5033021;28;1002;-60
2021/04/24 11:49:03;;;;;;;;;;;;;;;16.66;34.29;96112.63;5032929;28;1077;-60
2021/04/24 11:51:34;;;;;;;;;;;;;;;16.40;36.37;96117.16;5032638;28;1021;-60
2021/04/24 11:54:00;;;;;;;;;;;;;;;16.33;41.12;96118.44;5032536;28;1902;-62
2021/04/24 11:56:27;;;;;;;;;;;;;;;16.17;39.50;96117.41;5032609;28;1070;-61
2021/04/24 11:58:53;;;;;;;;;;;;;;;16.28;36.95;96108.13;5032773;28;1023;-61
2021/04/24 12:01:20;;;;;;;;;;;;;;;16.59;40.04;96114.94;5032629;28;1509;-61
2021/04/24 12:03:47;;;;;;;;;;;;;;;16.79;36.42;96116.88;5032513;28;1066;-61
2021/04/24 12:06:14;;;;;;;;;;;;;;;16.64;40.41;96110.31;5032582;28;1572;-61
2021/04/24 12:08:41;;;;;;;;;;;;;;;16.67;37.35;96116.78;5032324;28;1129;-62
2021/04/24 12:11:10;;;;;;;;;;;;;;;16.89;40.61;96116.50;5032062;28;1434;-62
2021/04/24 12:13:37;;;;;;;;;;;;;;;17.08;38.76;96114.25;5032243;28;2008;-61
2021/04/24 12:16:03;;;;;;;;;;;;;;;16.98;34.82;96105.97;5031699;28;970;-61
2021/04/24 12:18:31;;;;;;;;;;;;;;;17.35;34.56;96112.97;5032185;28;1128;-62
2021/04/24 12:20:57;;;;;;;;;;;;;;;17.48;35.78;96106.69;5032082;28;1117;-62
2021/04/24 12:23:25;;;;;;;;;;;;;;;17.52;36.69;96096.31;5032084;28;1090;-61
2021/04/24 12:25:51;;;;;;;;;;;;;;;17.78;36.01;96098.72;5032587;28;902;-61
2021/04/24 12:28:19;;;;;;;;;;;;;;;18.20;33.43;96079.09;5032375;28;1642;-61
2021/04/24 12:30:46;;;;;;;;;;;;;;;18.42;30.99;96075.28;5032305;28;1588;-61
2021/04/24 12:33:15;;;;;;;;;;;;;;;17.81;32.20;96067.28;5032005;28;1898;-61
2021/04/24 12:35:42;;;;;;;;;;;;;;;17.85;32.30;96062.16;5031842;28;1082;-61
2021/04/24 12:38:09;;;;;;;;;;;;;;;17.92;37.89;96054.50;5031769;28;1160;-61
2021/04/24 12:40:39;;;;;;;;;;;;;;;18.06;34.56;96042.56;5031976;28;1109;-60
2021/04/24 12:43:06;;;;;;;;;;;;;;;18.00;35.76;96029.97;5032292;28;956;-61
2021/04/24 12:45:33;;;;;;;;;;;;;;;18.15;33.30;96025.91;5032022;28;1233;-62
2021/04/24 12:48:00;;;;;;;;;;;;;;;17.98;33.54;96021.66;5031758;28;1141;-61
2021/04/24 12:50:28;;;;;;;;;;;;;;;17.49;32.61;96023.34;5031581;28;1070;-61
2021/04/24 12:52:56;;;;;;;;;;;;;;;17.35;34.66;96022.84;5031543;28;1926;-62
2021/04/24 12:55:28;;;;;;;;;;;;;;;17.34;33.14;96016.84;5031713;28;1021;-61
2021/04/24 12:57:57;;;;;;;;;;;;;;;17.35;33.14;96007.09;5031765;28;1553;-62
2021/04/24 13:00:34;;;;;;;;;;;;;;;17.29;33.67;96000.50;5031508;28;1145;-61
2021/04/24 13:03:00;;;;;;;;;;;;;;;17.45;34.39;95999.56;5031587;28;1070;-61
2021/04/24 13:05:37;;;;;;;;;;;;;;;17.51;35.62;95997.53;5031545;28;1070;-62